createdAt,value
2019-02-11T00:00:32.006Z,2.42
2019-02-11T00:01:32.090Z,2.50
2019-02-11T00:02:31.973Z,2.50
2019-02-11T00:03:31.965Z,2.38
2019-02-11T00:04:31.950Z,2.43
2019-02-11T00:05:31.943Z,2.39
2019-02-11T00:06:32.063Z,2.38
2019-02-11T00:07:31.919Z,2.38
2019-02-11T00:08:31.910Z,2.49
2019-02-11T00:09:31.896Z,2.43
2019-02-11T00:10:31.884Z,2.46
2019-02-11T00:11:31.926Z,2.36
2019-02-11T00:12:31.864Z,2.33
2019-02-11T00:13:31.888Z,2.43
2019-02-11T00:14:31.854Z,2.43
2019-02-11T00:15:31.835Z,2.44
2019-02-11T00:16:31.841Z,2.38
2019-02-11T00:17:31.822Z,2.39
2019-02-11T00:18:31.798Z,2.46
2019-02-11T00:19:31.785Z,2.38
2019-02-11T00:20:31.853Z,2.43
2019-02-11T00:21:31.775Z,2.42
2019-02-11T00:22:31.775Z,2.43
2019-02-11T00:23:31.740Z,2.44
2019-02-11T00:24:31.730Z,2.46
2019-02-11T00:25:31.721Z,2.43
2019-02-11T00:26:31.721Z,2.44
2019-02-11T00:27:31.770Z,2.46
2019-02-11T00:28:31.692Z,2.44
2019-02-11T00:29:31.686Z,2.39
2019-02-11T00:30:31.682Z,2.49
2019-02-11T00:31:31.663Z,2.44
2019-02-11T00:32:31.642Z,2.46
2019-02-11T00:33:31.636Z,2.46
2019-02-11T00:34:31.626Z,2.53
2019-02-11T00:35:31.643Z,2.53
2019-02-11T00:36:31.612Z,2.57
2019-02-11T00:37:31.587Z,2.44
2019-02-11T00:38:31.604Z,2.54
2019-02-11T00:39:31.574Z,2.56
2019-02-11T00:40:31.557Z,2.56
2019-02-11T00:41:31.566Z,2.57
2019-02-11T00:42:31.543Z,2.54
2019-02-11T00:43:31.523Z,2.53
2019-02-11T00:44:31.532Z,2.53
2019-02-11T00:45:31.510Z,2.57
2019-02-11T00:46:31.594Z,2.60
2019-02-11T00:47:31.477Z,2.60
2019-02-11T00:48:31.469Z,2.60
2019-02-11T00:49:31.460Z,2.53
2019-02-11T00:50:31.449Z,2.50
2019-02-11T00:51:31.480Z,2.60
2019-02-11T00:52:31.426Z,2.54
2019-02-11T00:53:31.414Z,2.57
2019-02-11T00:54:31.405Z,2.53
2019-02-11T00:55:31.442Z,2.56
2019-02-11T00:56:31.421Z,2.60
2019-02-11T00:57:31.403Z,2.56
2019-02-11T00:58:31.360Z,2.57
2019-02-11T00:59:31.356Z,2.57
2019-02-11T01:00:31.334Z,2.47
2019-02-11T01:01:31.351Z,2.61
2019-02-11T01:02:31.315Z,2.53
2019-02-11T01:03:31.303Z,2.56
2019-02-11T01:04:31.288Z,2.54
2019-02-11T01:05:31.289Z,2.61
2019-02-11T01:06:31.350Z,2.53
2019-02-11T01:07:31.267Z,2.50
2019-02-11T01:08:31.248Z,2.62
2019-02-11T01:09:31.261Z,2.53
2019-02-11T01:10:31.221Z,2.56
2019-02-11T01:11:31.213Z,2.50
2019-02-11T01:12:31.207Z,2.60
2019-02-11T01:13:31.208Z,2.53
2019-02-11T01:14:31.219Z,2.54
2019-02-11T01:15:31.169Z,2.49
2019-02-11T01:16:31.182Z,2.47
2019-02-11T01:17:31.144Z,2.39
2019-02-11T01:18:31.139Z,2.38
2019-02-11T01:19:31.146Z,2.49
2019-02-11T01:20:31.137Z,2.49
2019-02-11T01:21:31.197Z,2.46
2019-02-11T01:22:31.089Z,2.39
2019-02-11T01:23:31.115Z,2.43
2019-02-11T01:24:31.098Z,2.36
2019-02-11T01:25:31.062Z,2.33
2019-02-11T01:26:31.066Z,2.38
2019-02-11T01:27:31.037Z,2.43
2019-02-11T01:28:31.064Z,2.39
2019-02-11T01:29:31.015Z,2.39
2019-02-11T01:30:31.004Z,2.39
2019-02-11T01:31:30.997Z,2.42
2019-02-11T01:32:30.988Z,2.39
2019-02-11T01:33:31.039Z,2.42
2019-02-11T01:34:30.961Z,2.42
2019-02-11T01:35:30.974Z,2.43
2019-02-11T01:36:30.972Z,2.39
2019-02-11T01:37:30.939Z,2.39
2019-02-11T01:38:30.926Z,2.36
2019-02-11T01:39:30.926Z,2.42
2019-02-11T01:40:30.895Z,2.35
2019-02-11T01:41:30.883Z,2.42
2019-02-11T01:42:30.896Z,2.42
2019-02-11T01:43:36.176Z,2.39
2019-02-11T01:44:31.876Z,2.32
2019-02-11T01:45:30.838Z,2.36
2019-02-11T01:46:30.854Z,2.38
2019-02-11T01:47:30.833Z,2.29
2019-02-11T01:48:30.810Z,2.35
2019-02-11T01:49:30.819Z,2.33
2019-02-11T01:50:30.787Z,2.38
2019-02-11T01:51:30.794Z,2.36
2019-02-11T01:52:30.772Z,2.35
2019-02-11T01:53:30.751Z,2.33
2019-02-11T01:54:30.768Z,2.36
2019-02-11T01:55:30.730Z,2.25
2019-02-11T01:56:30.726Z,2.32
2019-02-11T01:57:30.723Z,2.29
2019-02-11T01:58:30.713Z,2.28
2019-02-11T01:59:30.778Z,2.26
2019-02-11T02:00:30.682Z,2.29
2019-02-11T02:01:30.662Z,2.29
2019-02-11T02:02:30.654Z,2.22
2019-02-11T02:03:30.670Z,2.26
2019-02-11T02:04:30.677Z,2.29
2019-02-11T02:05:30.626Z,2.29
2019-02-11T02:06:30.611Z,2.22
2019-02-11T02:07:30.598Z,2.26
2019-02-11T02:08:30.622Z,2.22
2019-02-11T02:09:30.606Z,2.26
2019-02-11T02:10:30.576Z,2.20
2019-02-11T02:11:30.552Z,2.22
2019-02-11T02:12:30.544Z,2.17
2019-02-11T02:13:30.602Z,2.15
2019-02-11T02:14:30.543Z,2.25
2019-02-11T02:15:30.511Z,2.22
2019-02-11T02:16:30.498Z,2.18
2019-02-11T02:17:30.502Z,2.20
2019-02-11T02:18:30.539Z,2.24
2019-02-11T02:19:30.481Z,2.22
2019-02-11T02:20:30.456Z,2.22
2019-02-11T02:21:30.445Z,2.13
2019-02-11T02:22:30.441Z,2.13
2019-02-11T02:23:30.451Z,2.17
2019-02-11T02:24:30.410Z,2.08
2019-02-11T02:25:30.401Z,2.10
2019-02-11T02:26:30.391Z,2.15
2019-02-11T02:27:30.431Z,2.02
2019-02-11T02:28:30.368Z,2.02
2019-02-11T02:29:30.377Z,2.04
2019-02-11T02:30:30.349Z,1.88
2019-02-11T02:31:30.335Z,1.85
2019-02-11T02:32:30.346Z,1.85
2019-02-11T02:33:30.335Z,1.81
2019-02-11T02:34:30.337Z,1.74
2019-02-11T02:35:30.326Z,1.77
2019-02-11T02:36:30.281Z,1.74
2019-02-11T02:37:30.267Z,1.80
2019-02-11T02:38:30.256Z,1.81
2019-02-11T02:39:30.277Z,1.84
2019-02-11T02:40:30.248Z,1.78
2019-02-11T02:41:30.249Z,1.89
2019-02-11T02:42:30.223Z,1.80
2019-02-11T02:43:30.202Z,1.87
2019-02-11T02:44:30.213Z,1.85
2019-02-11T02:45:30.183Z,1.88
2019-02-11T02:46:30.172Z,1.89
2019-02-11T02:47:30.157Z,1.99
2019-02-11T02:48:30.161Z,2.08
2019-02-11T02:49:30.180Z,2.04
2019-02-11T02:50:30.127Z,2.11
2019-02-11T02:51:30.146Z,2.15
2019-02-11T02:52:30.100Z,2.10
2019-02-11T02:53:30.097Z,2.17
2019-02-11T02:54:30.132Z,2.11
2019-02-11T02:55:30.101Z,2.14
2019-02-11T02:56:30.098Z,2.14
2019-02-11T02:57:30.046Z,2.28
2019-02-11T02:58:30.033Z,2.25
2019-02-11T02:59:30.024Z,2.33
2019-02-11T03:00:30.015Z,2.42
2019-02-11T03:01:30.019Z,2.35
2019-02-11T03:02:30.014Z,2.33
2019-02-11T03:03:30.041Z,2.42
2019-02-11T03:04:29.970Z,2.43
2019-02-11T03:05:29.968Z,2.49
2019-02-11T03:06:29.978Z,2.33
2019-02-11T03:07:29.965Z,2.33
2019-02-11T03:08:29.928Z,2.49
2019-02-11T03:09:29.942Z,2.47
2019-02-11T03:10:29.916Z,2.47
2019-02-11T03:11:29.914Z,2.49
2019-02-11T03:12:29.879Z,2.56
2019-02-11T03:13:29.950Z,2.49
2019-02-11T03:14:29.870Z,2.56
2019-02-11T03:15:29.855Z,2.54
2019-02-11T03:16:29.839Z,2.54
2019-02-11T03:17:29.822Z,2.57
2019-02-11T03:18:29.867Z,2.54
2019-02-11T03:19:29.806Z,2.53
2019-02-11T03:20:29.796Z,2.53
2019-02-11T03:21:29.808Z,2.57
2019-02-11T03:22:29.813Z,2.61
2019-02-11T03:23:29.828Z,2.60
2019-02-11T03:24:29.769Z,2.64
2019-02-11T03:25:29.744Z,2.53
2019-02-11T03:26:29.728Z,2.60
2019-02-11T03:27:29.724Z,2.62
2019-02-11T03:28:29.729Z,2.64
2019-02-11T03:29:29.696Z,2.61
2019-02-11T03:30:29.785Z,2.62
2019-02-11T03:31:29.671Z,2.61
2019-02-11T03:32:29.668Z,2.65
2019-02-11T03:33:29.690Z,2.65
2019-02-11T03:34:29.638Z,2.75
2019-02-11T03:35:29.638Z,2.75
2019-02-11T03:36:29.622Z,2.75
2019-02-11T03:37:29.620Z,2.69
2019-02-11T03:38:29.618Z,2.82
2019-02-11T03:39:29.591Z,2.74
2019-02-11T03:40:29.570Z,2.74
2019-02-11T03:41:29.576Z,2.74
2019-02-11T03:42:29.550Z,2.80
2019-02-11T03:43:29.570Z,2.77
2019-02-11T03:44:29.557Z,2.72
2019-02-11T03:45:29.546Z,2.74
2019-02-11T03:46:29.510Z,2.79
2019-02-11T03:47:29.519Z,2.77
2019-02-11T03:48:29.501Z,2.74
2019-02-11T03:49:29.497Z,2.75
2019-02-11T03:50:29.489Z,2.75
2019-02-11T03:51:29.453Z,2.77
2019-02-11T03:52:29.474Z,2.83
2019-02-11T03:53:29.476Z,2.79
2019-02-11T03:54:29.427Z,2.77
2019-02-11T03:55:29.450Z,2.75
2019-02-11T03:56:29.399Z,2.77
2019-02-11T03:57:29.389Z,2.77
2019-02-11T03:58:29.381Z,2.75
2019-02-11T03:59:29.368Z,2.75
2019-02-11T04:00:29.393Z,2.79
2019-02-11T04:01:29.362Z,2.74
2019-02-11T04:02:29.366Z,2.75
2019-02-11T04:03:29.321Z,2.74
2019-02-11T04:04:29.312Z,2.82
2019-02-11T04:05:29.333Z,2.75
2019-02-11T04:06:29.315Z,2.75
2019-02-11T04:07:29.279Z,2.86
2019-02-11T04:08:29.327Z,2.74
2019-02-11T04:09:29.254Z,2.79
2019-02-11T04:10:29.269Z,2.79
2019-02-11T04:11:29.295Z,2.80
2019-02-11T04:12:29.239Z,2.83
2019-02-11T04:13:29.212Z,2.75
2019-02-11T04:14:29.208Z,2.75
2019-02-11T04:15:29.191Z,2.74
2019-02-11T04:16:29.228Z,2.83
2019-02-11T04:17:29.178Z,2.85
2019-02-11T04:18:29.160Z,2.75
2019-02-11T04:19:29.152Z,2.75
2019-02-11T04:20:29.135Z,2.85
2019-02-11T04:21:29.169Z,2.85
2019-02-11T04:22:29.136Z,2.79
2019-02-11T04:23:29.102Z,2.85
2019-02-11T04:24:29.097Z,2.79
2019-02-11T04:25:29.108Z,2.82
2019-02-11T04:26:29.071Z,2.89
2019-02-11T04:27:29.061Z,2.89
2019-02-11T04:28:29.078Z,2.79
2019-02-11T04:29:29.048Z,2.93
2019-02-11T04:30:29.052Z,2.90
2019-02-11T04:31:29.025Z,2.89
2019-02-11T04:32:29.017Z,2.86
2019-02-11T04:33:28.999Z,2.87
2019-02-11T04:34:28.983Z,2.87
2019-02-11T04:35:29.015Z,2.87
2019-02-11T04:36:28.963Z,2.87
2019-02-11T04:37:28.950Z,2.89
2019-02-11T04:38:28.944Z,3.01
2019-02-11T04:39:28.930Z,3.00
2019-02-11T04:40:28.967Z,3.04
2019-02-11T04:41:28.929Z,3.00
2019-02-11T04:42:28.943Z,3.00
2019-02-11T04:43:28.908Z,2.98
2019-02-11T04:44:33.963Z,2.97
2019-02-11T04:45:29.866Z,3.01
2019-02-11T04:46:28.872Z,3.00
2019-02-11T04:47:28.855Z,2.98
2019-02-11T04:48:28.862Z,3.03
2019-02-11T04:49:28.819Z,3.00
2019-02-11T04:50:28.807Z,2.86
2019-02-11T04:51:28.801Z,3.05
2019-02-11T04:52:28.845Z,3.04
2019-02-11T04:53:28.840Z,3.05
2019-02-11T04:54:28.777Z,3.10
2019-02-11T04:55:28.755Z,3.04
2019-02-11T04:56:28.742Z,3.11
2019-02-11T04:57:28.757Z,3.00
2019-02-11T04:58:28.724Z,3.13
2019-02-11T04:59:28.723Z,3.00
2019-02-11T05:00:28.701Z,3.00
2019-02-11T05:01:28.713Z,3.04
2019-02-11T05:02:28.687Z,3.07
2019-02-11T05:03:28.666Z,3.07
2019-02-11T05:04:28.659Z,3.03
2019-02-11T05:05:28.651Z,3.01
2019-02-11T05:06:28.678Z,3.07
2019-02-11T05:07:28.625Z,3.05
2019-02-11T05:08:28.637Z,3.08
2019-02-11T05:09:28.620Z,3.03
2019-02-11T05:10:28.648Z,3.01
2019-02-11T05:11:28.633Z,3.05
2019-02-11T05:12:28.577Z,3.05
2019-02-11T05:13:28.558Z,3.05
2019-02-11T05:14:28.547Z,2.98
2019-02-11T05:15:28.560Z,3.01
2019-02-11T05:16:28.565Z,3.00
2019-02-11T05:17:28.512Z,2.97
2019-02-11T05:18:28.505Z,3.03
2019-02-11T05:19:28.496Z,3.03
2019-02-11T05:20:28.484Z,3.07
2019-02-11T05:21:28.520Z,3.05
2019-02-11T05:22:28.456Z,3.03
2019-02-11T05:23:28.492Z,3.01
2019-02-11T05:24:28.435Z,3.05
2019-02-11T05:25:28.424Z,3.00
2019-02-11T05:26:28.537Z,2.98
2019-02-11T05:27:28.402Z,3.03
2019-02-11T05:28:28.403Z,2.95
2019-02-11T05:29:28.406Z,3.01
2019-02-11T05:30:28.369Z,3.07
2019-02-11T05:31:28.362Z,3.10
2019-02-11T05:32:28.354Z,3.05
2019-02-11T05:33:28.336Z,3.10
2019-02-11T05:34:28.354Z,3.07
2019-02-11T05:35:28.324Z,3.07
2019-02-11T05:36:28.329Z,3.08
2019-02-11T05:37:28.293Z,3.13
2019-02-11T05:38:28.287Z,3.03
2019-02-11T05:39:28.305Z,3.08
2019-02-11T05:40:28.349Z,3.08
2019-02-11T05:41:28.247Z,3.04
2019-02-11T05:42:28.241Z,3.03
2019-02-11T05:43:28.226Z,3.07
2019-02-11T05:44:28.282Z,3.05
2019-02-11T05:45:28.239Z,3.04
2019-02-11T05:46:28.216Z,3.07
2019-02-11T05:47:28.179Z,2.98
2019-02-11T05:48:28.175Z,2.97
2019-02-11T05:49:28.186Z,3.01
2019-02-11T05:50:28.185Z,3.04
2019-02-11T05:51:28.139Z,3.00
2019-02-11T05:52:28.127Z,3.03
2019-02-11T05:53:28.141Z,3.00
2019-02-11T05:54:28.137Z,2.97
2019-02-11T05:55:28.120Z,3.00
2019-02-11T05:56:28.089Z,3.03
2019-02-11T05:57:28.143Z,3.04
2019-02-11T05:58:28.070Z,3.03
2019-02-11T05:59:28.065Z,3.04
2019-02-11T06:00:28.064Z,3.00
2019-02-11T06:01:28.058Z,3.07
2019-02-11T06:02:28.116Z,2.86
2019-02-11T06:03:28.041Z,3.05
2019-02-11T06:04:28.008Z,2.97
2019-02-11T06:05:28.026Z,3.03
2019-02-11T06:06:27.999Z,2.90
2019-02-11T06:07:27.994Z,2.87
2019-02-11T06:08:27.987Z,3.01
2019-02-11T06:09:27.942Z,3.03
2019-02-11T06:10:27.938Z,3.07
2019-02-11T06:11:27.941Z,3.07
2019-02-11T06:12:27.916Z,3.04
2019-02-11T06:13:27.934Z,3.04
2019-02-11T06:14:27.884Z,3.03
2019-02-11T06:15:27.896Z,2.97
2019-02-11T06:16:27.877Z,2.95
2019-02-11T06:17:27.899Z,3.00
2019-02-11T06:18:27.853Z,3.07
2019-02-11T06:19:27.859Z,2.97
2019-02-11T06:20:27.826Z,3.00
2019-02-11T06:21:27.826Z,2.98
2019-02-11T06:22:27.889Z,2.97
2019-02-11T06:23:29.653Z,3.00
2019-02-11T06:24:27.782Z,3.01
2019-02-11T06:25:27.781Z,2.98
2019-02-11T06:26:27.754Z,3.00
2019-02-11T06:27:27.780Z,2.95
2019-02-11T06:28:27.738Z,3.01
2019-02-11T06:29:27.729Z,3.01
2019-02-11T06:30:27.712Z,3.03
2019-02-11T06:31:27.702Z,3.01
2019-02-11T06:32:27.722Z,2.89
2019-02-11T06:33:27.678Z,2.90
2019-02-11T06:34:27.666Z,3.05
2019-02-11T06:35:27.691Z,3.08
2019-02-11T06:36:27.656Z,3.05
2019-02-11T06:37:27.634Z,3.05
2019-02-11T06:38:27.699Z,3.03
2019-02-11T06:39:27.615Z,3.05
2019-02-11T06:40:27.603Z,3.14
2019-02-11T06:41:27.620Z,3.03
2019-02-11T06:42:27.585Z,3.03
2019-02-11T06:43:27.661Z,3.01
2019-02-11T06:44:27.558Z,3.08
2019-02-11T06:45:27.548Z,3.01
2019-02-11T06:46:29.212Z,3.03
2019-02-11T06:47:27.588Z,3.05
2019-02-11T06:48:27.521Z,3.07
2019-02-11T06:49:27.516Z,3.05
2019-02-11T06:50:27.494Z,3.05
2019-02-11T06:51:27.524Z,3.13
2019-02-11T06:52:27.492Z,3.05
2019-02-11T06:53:27.465Z,3.07
2019-02-11T06:54:27.451Z,3.08
2019-02-11T06:55:27.451Z,3.07
2019-02-11T06:56:27.545Z,3.10
2019-02-11T06:57:27.429Z,3.07
2019-02-11T06:58:27.431Z,3.16
2019-02-11T06:59:27.413Z,3.14
2019-02-11T07:00:27.409Z,3.08
2019-02-11T07:01:27.370Z,3.03
2019-02-11T07:02:27.370Z,3.16
2019-02-11T07:03:27.374Z,3.13
2019-02-11T07:04:27.340Z,3.10
2019-02-11T07:05:27.334Z,3.07
2019-02-11T07:06:27.318Z,3.07
2019-02-11T07:07:27.392Z,3.08
2019-02-11T07:08:27.303Z,3.04
2019-02-11T07:09:27.296Z,3.05
2019-02-11T07:10:27.274Z,3.18
2019-02-11T07:11:27.259Z,3.07
2019-02-11T07:12:27.278Z,3.14
2019-02-11T07:13:27.300Z,3.11
2019-02-11T07:14:27.242Z,3.07
2019-02-11T07:15:27.233Z,3.13
2019-02-11T07:16:27.224Z,3.08
2019-02-11T07:17:27.232Z,3.10
2019-02-11T07:18:27.273Z,3.13
2019-02-11T07:19:27.172Z,3.08
2019-02-11T07:20:27.229Z,3.08
2019-02-11T07:21:27.157Z,3.07
2019-02-11T07:22:27.138Z,3.07
2019-02-11T07:23:27.131Z,3.07
2019-02-11T07:24:27.122Z,3.05
2019-02-11T07:25:27.135Z,3.14
2019-02-11T07:26:27.096Z,3.10
2019-02-11T07:27:27.090Z,3.08
2019-02-11T07:28:27.089Z,3.11
2019-02-11T07:29:27.077Z,3.10
2019-02-11T07:30:27.079Z,3.18
2019-02-11T07:31:27.050Z,3.07
2019-02-11T07:32:27.037Z,3.08
2019-02-11T07:33:27.096Z,3.07
2019-02-11T07:34:27.018Z,3.10
2019-02-11T07:35:27.009Z,3.08
2019-02-11T07:36:26.989Z,3.11
2019-02-11T07:37:26.993Z,3.08
2019-02-11T07:38:27.062Z,3.18
2019-02-11T07:39:26.955Z,3.10
2019-02-11T07:40:26.981Z,3.14
2019-02-11T07:41:26.937Z,3.16
2019-02-11T07:42:26.938Z,3.16
2019-02-11T07:43:26.935Z,3.22
2019-02-11T07:44:26.904Z,3.16
2019-02-11T07:45:30.140Z,3.14
2019-02-11T07:46:26.900Z,3.18
2019-02-11T07:47:26.878Z,3.16
2019-02-11T07:48:26.870Z,3.14
2019-02-11T07:49:26.893Z,3.21
2019-02-11T07:50:26.878Z,3.11
2019-02-11T07:51:26.830Z,3.13
2019-02-11T07:52:27.285Z,3.22
2019-02-11T07:53:26.805Z,3.19
2019-02-11T07:54:26.811Z,3.13
2019-02-11T07:55:26.821Z,3.14
2019-02-11T07:56:26.812Z,3.16
2019-02-11T07:57:26.781Z,3.19
2019-02-11T07:58:26.826Z,3.22
2019-02-11T07:59:26.807Z,3.26
2019-02-11T08:00:26.733Z,3.29
2019-02-11T08:01:26.778Z,3.16
2019-02-11T08:02:26.715Z,3.19
2019-02-11T08:03:26.710Z,3.28
2019-02-11T08:04:26.693Z,3.18
2019-02-11T08:05:26.680Z,3.21
2019-02-11T08:06:26.717Z,3.23
2019-02-11T08:07:26.667Z,3.23
2019-02-11T08:08:26.676Z,3.22
2019-02-11T08:09:26.663Z,3.22
2019-02-11T08:10:26.626Z,3.25
2019-02-11T08:11:26.629Z,3.25
2019-02-11T08:12:26.631Z,3.25
2019-02-11T08:13:26.856Z,3.29
2019-02-11T08:14:27.156Z,3.25
2019-02-11T08:15:26.610Z,3.26
2019-02-11T08:16:26.591Z,3.22
2019-02-11T08:17:26.557Z,3.22
2019-02-11T08:18:26.540Z,3.32
2019-02-11T08:19:26.631Z,3.34
2019-02-11T08:20:26.572Z,3.36
2019-02-11T08:21:26.545Z,3.42
2019-02-11T08:22:26.503Z,3.36
2019-02-11T08:23:26.504Z,3.37
2019-02-11T08:24:26.480Z,3.36
2019-02-11T08:25:26.492Z,3.42
2019-02-11T08:26:26.496Z,3.29
2019-02-11T08:27:26.450Z,3.41
2019-02-11T08:28:26.437Z,3.47
2019-02-11T08:29:26.435Z,3.41
2019-02-11T08:30:26.476Z,3.55
2019-02-11T08:31:26.438Z,3.44
2019-02-11T08:32:26.405Z,3.51
2019-02-11T08:33:26.407Z,3.51
2019-02-11T08:34:26.376Z,3.56
2019-02-11T08:35:26.379Z,3.51
2019-02-11T08:36:26.409Z,3.58
2019-02-11T08:37:26.346Z,3.55
2019-02-11T08:38:26.374Z,3.53
2019-02-11T08:39:26.345Z,3.48
2019-02-11T08:40:26.339Z,3.44
2019-02-11T08:41:26.303Z,3.44
2019-02-11T08:42:26.303Z,3.48
2019-02-11T08:43:26.312Z,3.47
2019-02-11T08:44:26.294Z,3.47
2019-02-11T08:45:26.275Z,3.47
2019-02-11T08:46:26.276Z,3.48
2019-02-11T08:47:26.252Z,3.53
2019-02-11T08:48:26.238Z,3.56
2019-02-11T08:49:26.277Z,3.63
2019-02-11T08:50:26.212Z,3.80
2019-02-11T08:51:26.259Z,3.91
2019-02-11T08:52:26.249Z,3.87
2019-02-11T08:53:26.218Z,3.92
2019-02-11T08:54:26.236Z,3.86
2019-02-11T08:55:26.161Z,3.80
2019-02-11T08:56:26.154Z,3.73
2019-02-11T08:57:26.138Z,3.76
2019-02-11T08:58:26.130Z,3.81
2019-02-11T08:59:26.161Z,3.87
2019-02-11T09:00:26.127Z,3.92
2019-02-11T09:01:26.101Z,3.99
2019-02-11T09:02:26.105Z,3.94
2019-02-11T09:03:26.086Z,3.92
2019-02-11T09:04:26.125Z,3.95
2019-02-11T09:05:26.058Z,4.12
2019-02-11T09:06:26.043Z,4.23
2019-02-11T09:07:26.033Z,4.23
2019-02-11T09:08:26.051Z,4.28
2019-02-11T09:09:26.014Z,4.22
2019-02-11T09:10:27.778Z,4.26
2019-02-11T09:11:25.992Z,4.16
2019-02-11T09:12:25.996Z,4.12
2019-02-11T09:13:25.967Z,4.14
2019-02-11T09:14:25.961Z,4.14
2019-02-11T09:15:25.984Z,4.12
2019-02-11T09:16:25.938Z,4.06
2019-02-11T09:17:25.937Z,4.14
2019-02-11T09:18:25.915Z,4.10
2019-02-11T09:19:25.908Z,4.10
2019-02-11T09:20:25.923Z,4.05
2019-02-11T09:21:25.885Z,3.99
2019-02-11T09:22:25.875Z,3.96
2019-02-11T09:23:25.907Z,4.06
2019-02-11T09:24:25.863Z,4.04
2019-02-11T09:25:25.866Z,4.02
2019-02-11T09:26:25.831Z,4.04
2019-02-11T09:27:25.839Z,4.04
2019-02-11T09:28:25.853Z,3.99
2019-02-11T09:29:25.804Z,3.91
2019-02-11T09:30:25.791Z,3.87
2019-02-11T09:31:25.773Z,3.83
2019-02-11T09:32:25.807Z,3.86
2019-02-11T09:33:25.755Z,3.92
2019-02-11T09:34:25.744Z,3.96
2019-02-11T09:35:25.758Z,4.08
2019-02-11T09:36:25.724Z,4.10
2019-02-11T09:37:25.751Z,4.19
2019-02-11T09:38:25.822Z,4.12
2019-02-11T09:39:25.685Z,4.14
2019-02-11T09:40:25.676Z,4.26
2019-02-11T09:41:25.687Z,4.31
2019-02-11T09:42:25.682Z,4.38
2019-02-11T09:43:25.804Z,4.53
2019-02-11T09:44:29.723Z,4.58
2019-02-11T09:45:25.621Z,4.53
2019-02-11T09:46:25.621Z,4.42
2019-02-11T09:47:25.604Z,4.45
2019-02-11T09:48:25.626Z,4.38
2019-02-11T09:49:25.585Z,4.31
2019-02-11T09:50:25.580Z,4.23
2019-02-11T09:51:25.554Z,4.10
2019-02-11T09:52:25.597Z,4.14
2019-02-11T09:53:25.602Z,4.35
2019-02-11T09:54:25.522Z,4.48
2019-02-11T09:55:25.515Z,4.56
2019-02-11T09:56:25.521Z,4.66
2019-02-11T09:57:25.486Z,4.48
2019-02-11T09:58:25.506Z,4.38
2019-02-11T09:59:25.568Z,4.42
2019-02-11T10:00:25.454Z,4.38
2019-02-11T10:01:25.525Z,4.38
2019-02-11T10:02:25.429Z,4.34
2019-02-11T10:03:25.456Z,4.40
2019-02-11T10:04:25.499Z,4.28
2019-02-11T10:05:25.395Z,4.31
2019-02-11T10:06:25.385Z,4.37
2019-02-11T10:07:25.417Z,4.26
2019-02-11T10:08:25.362Z,4.24
2019-02-11T10:09:25.375Z,4.32
2019-02-11T10:10:25.340Z,4.32
2019-02-11T10:11:25.351Z,4.31
2019-02-11T10:12:25.320Z,4.24
2019-02-11T10:13:25.313Z,4.40
2019-02-11T10:14:25.330Z,4.32
2019-02-11T10:15:25.289Z,4.30
2019-02-11T10:16:25.430Z,4.37
2019-02-11T10:17:29.841Z,4.26
2019-02-11T10:18:25.257Z,4.40
2019-02-11T10:19:25.244Z,4.41
2019-02-11T10:20:25.379Z,4.38
2019-02-11T10:21:25.221Z,4.34
2019-02-11T10:22:25.332Z,4.37
2019-02-11T10:23:25.256Z,4.31
2019-02-11T10:24:25.229Z,4.38
2019-02-11T10:25:25.210Z,4.45
2019-02-11T10:26:25.197Z,4.32
2019-02-11T10:27:25.176Z,4.41
2019-02-11T10:28:25.142Z,4.48
2019-02-11T10:29:25.147Z,4.37
2019-02-11T10:30:25.128Z,4.37
2019-02-11T10:31:25.168Z,4.35
2019-02-11T10:32:25.102Z,4.35
2019-02-11T10:33:25.093Z,4.35
2019-02-11T10:34:25.097Z,4.32
2019-02-11T10:35:25.071Z,4.24
2019-02-11T10:36:25.134Z,4.37
2019-02-11T10:37:25.048Z,4.42
2019-02-11T10:38:25.068Z,4.49
2019-02-11T10:39:25.049Z,4.50
2019-02-11T10:40:25.052Z,4.67
2019-02-11T10:41:25.008Z,4.70
2019-02-11T10:42:24.993Z,4.84
2019-02-11T10:43:25.012Z,4.86
2019-02-11T10:44:25.052Z,4.86
2019-02-11T10:45:24.963Z,4.80
2019-02-11T10:46:24.954Z,4.89
2019-02-11T10:47:24.971Z,5.02
2019-02-11T10:48:25.501Z,5.05
2019-02-11T10:49:24.989Z,5.05
2019-02-11T10:50:24.902Z,5.10
2019-02-11T10:51:24.898Z,5.08
2019-02-11T10:52:24.884Z,5.00
2019-02-11T10:53:24.870Z,5.05
2019-02-11T10:54:24.871Z,5.02
2019-02-11T10:55:24.868Z,5.12
2019-02-11T10:56:24.858Z,4.99
2019-02-11T10:57:24.824Z,5.04
2019-02-11T10:58:24.819Z,5.00
2019-02-11T10:59:24.827Z,4.99
2019-02-11T11:00:24.874Z,5.00
2019-02-11T11:01:24.822Z,5.02
2019-02-11T11:02:24.772Z,5.10
2019-02-11T11:03:24.758Z,5.08
2019-02-11T11:04:24.811Z,5.07
2019-02-11T11:05:24.781Z,5.00
2019-02-11T11:06:24.716Z,4.82
2019-02-11T11:07:24.706Z,4.73
2019-02-11T11:08:24.728Z,4.73
2019-02-11T11:09:24.686Z,4.66
2019-02-11T11:10:24.756Z,4.67
2019-02-11T11:11:24.660Z,4.74
2019-02-11T11:12:24.656Z,4.67
2019-02-11T11:13:24.639Z,4.74
2019-02-11T11:14:24.629Z,4.70
2019-02-11T11:15:24.649Z,4.74
2019-02-11T11:16:29.585Z,4.68
2019-02-11T11:17:25.678Z,4.71
2019-02-11T11:18:24.665Z,4.82
2019-02-11T11:19:24.634Z,4.82
2019-02-11T11:20:24.586Z,4.89
2019-02-11T11:21:24.553Z,4.82
2019-02-11T11:22:24.571Z,4.75
2019-02-11T11:23:24.532Z,4.78
2019-02-11T11:24:24.515Z,4.74
2019-02-11T11:25:24.534Z,4.80
2019-02-11T11:26:24.495Z,4.87
2019-02-11T11:27:24.513Z,4.78
2019-02-11T11:28:24.469Z,5.04
2019-02-11T11:29:24.471Z,5.17
2019-02-11T11:30:24.450Z,5.18
2019-02-11T11:31:24.472Z,5.43
2019-02-11T11:32:24.466Z,5.51
2019-02-11T11:33:24.445Z,5.66
2019-02-11T11:34:24.421Z,5.75
2019-02-11T11:35:24.392Z,5.72
2019-02-11T11:36:24.401Z,5.90
2019-02-11T11:37:24.470Z,5.98
2019-02-11T11:38:24.380Z,5.94
2019-02-11T11:39:25.478Z,6.02
2019-02-11T11:40:24.358Z,6.01
2019-02-11T11:41:24.338Z,6.17
2019-02-11T11:42:24.343Z,6.09
2019-02-11T11:43:24.351Z,6.33
2019-02-11T11:44:24.304Z,6.30
2019-02-11T11:45:24.316Z,6.22
2019-02-11T11:46:24.309Z,6.05
2019-02-11T11:47:24.276Z,6.04
2019-02-11T11:48:24.342Z,5.97
2019-02-11T11:49:24.262Z,5.86
2019-02-11T11:50:24.224Z,5.76
2019-02-11T11:51:24.265Z,5.68
2019-02-11T11:52:24.235Z,5.73
2019-02-11T11:53:24.199Z,5.83
2019-02-11T11:54:24.249Z,5.99
2019-02-11T11:55:24.225Z,6.07
2019-02-11T11:56:24.161Z,6.08
2019-02-11T11:57:24.186Z,6.05
2019-02-11T11:58:26.643Z,6.05
2019-02-11T11:59:24.183Z,6.16
2019-02-11T12:00:24.124Z,6.39
2019-02-11T12:01:24.109Z,6.30
2019-02-11T12:02:24.094Z,6.27
2019-02-11T12:03:24.086Z,6.14
2019-02-11T12:04:24.165Z,6.19
2019-02-11T12:05:24.061Z,6.14
2019-02-11T12:06:25.511Z,6.16
2019-02-11T12:07:24.029Z,6.17
2019-02-11T12:08:24.025Z,6.05
2019-02-11T12:09:24.068Z,6.14
2019-02-11T12:10:24.001Z,6.12
2019-02-11T12:11:24.048Z,6.09
2019-02-11T12:12:23.980Z,5.99
2019-02-11T12:13:24.083Z,6.04
2019-02-11T12:14:23.981Z,5.99
2019-02-11T12:15:23.959Z,5.86
2019-02-11T12:16:23.947Z,5.83
2019-02-11T12:17:23.922Z,5.66
2019-02-11T12:18:23.949Z,5.59
2019-02-11T12:19:23.923Z,5.59
2019-02-11T12:20:23.894Z,5.57
2019-02-11T12:21:23.883Z,5.61
2019-02-11T12:22:23.884Z,5.66
2019-02-11T12:23:23.895Z,5.64
2019-02-11T12:24:23.985Z,5.50
2019-02-11T12:25:23.869Z,5.50
2019-02-11T12:26:23.900Z,5.50
2019-02-11T12:27:23.855Z,5.33
2019-02-11T12:28:23.850Z,5.35
2019-02-11T12:29:23.818Z,5.38
2019-02-11T12:30:24.071Z,5.21
2019-02-11T12:31:23.763Z,5.08
2019-02-11T12:32:23.806Z,5.02
2019-02-11T12:33:23.759Z,5.02
2019-02-11T12:34:23.745Z,5.05
2019-02-11T12:35:23.751Z,4.96
2019-02-11T12:36:23.726Z,4.97
2019-02-11T12:37:23.762Z,4.90
2019-02-11T12:38:23.712Z,4.97
2019-02-11T12:39:23.679Z,4.97
2019-02-11T12:40:23.690Z,4.94
2019-02-11T12:41:23.673Z,4.90
2019-02-11T12:42:23.637Z,4.87
2019-02-11T12:43:23.634Z,4.78
2019-02-11T12:44:23.618Z,4.86
2019-02-11T12:45:23.607Z,4.84
2019-02-11T12:46:23.621Z,4.77
2019-02-11T12:47:23.611Z,4.84
2019-02-11T12:48:23.594Z,4.87
2019-02-11T12:49:23.563Z,4.87
2019-02-11T12:50:23.604Z,4.87
2019-02-11T12:51:23.555Z,4.80
2019-02-11T12:52:23.538Z,4.78
2019-02-11T12:53:23.537Z,4.89
2019-02-11T12:54:23.508Z,4.82
2019-02-11T12:55:23.497Z,4.80
2019-02-11T12:56:23.489Z,4.78
2019-02-11T12:57:23.512Z,4.73
2019-02-11T12:58:23.470Z,4.74
2019-02-11T12:59:23.465Z,4.70
2019-02-11T13:00:23.446Z,4.56
2019-02-11T13:01:23.439Z,4.68
2019-02-11T13:02:23.445Z,4.66
2019-02-11T13:03:23.410Z,4.66
2019-02-11T13:04:23.429Z,4.52
2019-02-11T13:05:40.250Z,4.52
2019-02-11T13:06:24.386Z,4.58
2019-02-11T13:07:23.411Z,4.41
2019-02-11T13:08:23.354Z,4.38
2019-02-11T13:09:23.346Z,4.37
2019-02-11T13:10:23.395Z,4.42
2019-02-11T13:11:23.324Z,4.28
2019-02-11T13:12:23.397Z,4.32
2019-02-11T13:13:23.316Z,4.35
2019-02-11T13:14:23.304Z,4.32
2019-02-11T13:15:56.908Z,4.38
2019-02-11T13:16:24.308Z,4.34
2019-02-11T13:17:33.834Z,4.40
2019-02-11T13:18:24.464Z,4.23